Time;durP1;ratioP1;P1;durP2;ratioP2;P2;SDS_P1;SDS_P2;PMS_P1;PMS_P2;Temp;Humidity;BMP_temperature;BMP_pressure;BME280_temperature;BME280_humidity;BME280_pressure;Samples;Min_cycle;Max_cycle;Signal;HPM_P1;HPM_P2
2024/02/15 00:01:05;;;;;;;31.07;14.47;;;8.60;99.90;;;;;;5070184;28;20228;-67
2024/02/15 00:03:32;;;;;;;27.33;14.30;;;8.60;99.90;;;;;;5061394;28;20220;-65
2024/02/15 00:06:01;;;;;;;30.03;14.23;;;8.70;99.90;;;;;;5053379;28;20193;-66
2024/02/15 00:08:30;;;;;;;29.27;13.43;;;8.70;99.90;;;;;;5067921;28;20244;-66
2024/02/15 00:10:57;;;;;;;25.80;13.67;;;8.60;99.90;;;;;;5073330;28;20201;-66
2024/02/15 00:13:24;;;;;;;25.37;12.60;;;8.70;99.90;;;;;;5068663;28;20279;-66
2024/02/15 00:15:52;;;;;;;30.83;13.43;;;8.70;99.90;;;;;;5072702;28;20189;-67
2024/02/15 00:18:19;;;;;;;26.13;13.40;;;8.70;99.90;;;;;;5068966;28;20215;-66
2024/02/15 00:20:46;;;;;;;28.93;13.83;;;8.70;99.90;;;;;;5060575;28;20222;-66
2024/02/15 00:23:16;;;;;;;31.40;14.07;;;8.70;99.90;;;;;;5065055;28;20224;-66
2024/02/15 00:25:44;;;;;;;25.13;13.37;;;8.70;99.90;;;;;;5074296;28;20193;-66
2024/02/15 00:28:12;;;;;;;25.00;13.23;;;8.60;99.90;;;;;;5071594;28;20203;-66
2024/02/15 00:30:39;;;;;;;24.07;12.07;;;8.70;99.90;;;;;;5070091;28;20538;-66
2024/02/15 00:33:07;;;;;;;15.20;9.30;;;8.70;99.90;;;;;;5074036;28;20268;-65
2024/02/15 00:35:34;;;;;;;20.57;10.40;;;8.70;99.90;;;;;;5054652;28;20206;-65
2024/02/15 00:38:02;;;;;;;20.30;10.87;;;8.70;99.90;;;;;;5082665;28;20223;-66
2024/02/15 00:40:31;;;;;;;25.30;13.30;;;8.70;99.90;;;;;;5080352;28;20241;-67
2024/02/15 00:42:58;;;;;;;26.00;12.53;;;8.70;99.90;;;;;;5064699;28;20282;-66
2024/02/15 00:45:25;;;;;;;28.23;12.67;;;8.70;99.90;;;;;;5055737;28;20205;-66
2024/02/15 00:47:54;;;;;;;19.73;10.00;;;8.80;99.90;;;;;;5054701;28;20612;-66
2024/02/15 00:50:21;;;;;;;23.30;10.93;;;8.80;99.90;;;;;;5072299;28;20660;-66
2024/02/15 00:52:48;;;;;;;23.83;11.97;;;8.80;99.90;;;;;;5073640;28;20373;-66
2024/02/15 00:55:16;;;;;;;24.83;12.30;;;8.80;99.90;;;;;;5073231;28;20291;-65
2024/02/15 00:57:45;;;;;;;24.77;12.03;;;8.80;99.90;;;;;;5074936;28;20572;-66
2024/02/15 01:00:12;;;;;;;21.03;11.83;;;8.80;99.90;;;;;;5073473;28;20185;-68
2024/02/15 01:02:40;;;;;;;21.60;11.40;;;8.80;99.90;;;;;;5072458;28;20217;-67
2024/02/15 01:05:07;;;;;;;21.97;10.83;;;8.80;99.90;;;;;;5077687;28;20228;-67
2024/02/15 01:07:34;;;;;;;19.10;10.93;;;8.80;99.90;;;;;;5085025;28;20720;-67
2024/02/15 01:10:03;;;;;;;22.73;11.07;;;8.80;99.90;;;;;;5053068;28;20202;-66
2024/02/15 01:12:30;;;;;;;19.80;11.50;;;8.80;99.90;;;;;;5075366;28;20194;-66
2024/02/15 01:14:59;;;;;;;16.90;9.23;;;8.80;99.90;;;;;;5062018;28;20194;-68
2024/02/15 01:17:26;;;;;;;21.00;10.87;;;8.80;99.90;;;;;;5079413;28;20578;-68
2024/02/15 01:19:53;;;;;;;21.17;11.70;;;8.80;99.90;;;;;;5072719;28;20246;-68
2024/02/15 01:22:23;;;;;;;27.23;12.33;;;8.80;99.90;;;;;;5072347;28;20215;-68
2024/02/15 01:24:50;;;;;;;23.97;11.77;;;8.80;99.90;;;;;;5063506;28;20205;-68
2024/02/15 01:27:17;;;;;;;24.97;11.67;;;8.80;99.90;;;;;;5074240;28;20250;-68
2024/02/15 01:29:45;;;;;;;23.67;12.40;;;8.80;99.90;;;;;;5051414;28;20553;-68
2024/02/15 01:32:13;;;;;;;26.20;11.83;;;8.80;99.90;;;;;;5070939;28;20187;-68
2024/02/15 01:34:42;;;;;;;24.87;12.97;;;8.70;99.90;;;;;;5072505;28;20661;-68
2024/02/15 01:37:10;;;;;;;25.97;13.20;;;8.70;99.90;;;;;;5074494;28;20217;-68
2024/02/15 01:39:37;;;;;;;24.70;12.53;;;8.70;99.90;;;;;;5055059;28;20546;-68
2024/02/15 01:42:05;;;;;;;29.07;12.30;;;8.60;99.90;;;;;;5074386;28;20614;-68
2024/02/15 01:44:32;;;;;;;23.57;11.57;;;8.60;99.90;;;;;;5069175;28;20217;-68
2024/02/15 01:46:59;;;;;;;22.97;11.77;;;8.60;99.90;;;;;;5066643;28;20624;-68
2024/02/15 01:49:29;;;;;;;17.93;10.30;;;8.60;99.90;;;;;;5069599;28;20221;-68
2024/02/15 01:51:58;;;;;;;20.50;10.90;;;8.70;99.90;;;;;;5080695;28;20236;-68
2024/02/15 01:54:29;;;;;;;23.70;10.33;;;8.70;99.90;;;;;;5080646;28;20226;-68
2024/02/15 01:56:56;;;;;;;21.87;11.03;;;8.70;99.90;;;;;;5073131;28;20220;-69
2024/02/15 01:59:24;;;;;;;21.27;10.57;;;8.70;99.90;;;;;;5071525;28;20192;-68
2024/02/15 02:01:51;;;;;;;24.53;11.90;;;8.70;99.90;;;;;;5065476;28;20257;-68
2024/02/15 02:04:19;;;;;;;24.53;11.33;;;8.70;99.90;;;;;;5071614;28;20703;-68
2024/02/15 02:06:47;;;;;;;19.23;9.53;;;8.70;99.90;;;;;;5072560;28;20627;-67
2024/02/15 02:09:15;;;;;;;22.90;10.73;;;8.70;99.90;;;;;;5080377;28;20229;-67
2024/02/15 02:11:42;;;;;;;19.87;9.80;;;8.80;99.90;;;;;;5072367;28;20233;-68
2024/02/15 02:14:09;;;;;;;16.90;8.63;;;8.80;99.90;;;;;;5071675;28;20531;-67
2024/02/15 02:16:36;;;;;;;16.80;8.47;;;8.80;99.90;;;;;;5071681;28;20205;-67
2024/02/15 02:19:08;;;;;;;16.37;9.20;;;8.80;99.90;;;;;;5078621;28;20203;-67
2024/02/15 02:21:38;;;;;;;17.47;9.40;;;8.80;99.90;;;;;;5053890;28;20226;-67
2024/02/15 02:24:14;;;;;;;17.07;9.77;;;8.90;99.90;;;;;;5070655;28;20219;-68
2024/02/15 02:26:43;;;;;;;19.20;9.23;;;8.90;99.90;;;;;;5071515;28;20195;-68
2024/02/15 02:29:11;;;;;;;13.47;7.87;;;8.90;99.90;;;;;;5071443;28;20642;-68
2024/02/15 02:31:38;;;;;;;19.20;9.80;;;8.90;99.90;;;;;;5047466;28;20203;-69
2024/02/15 02:34:06;;;;;;;17.80;8.77;;;8.90;99.90;;;;;;5074404;28;20270;-69
2024/02/15 02:36:33;;;;;;;16.37;9.30;;;9.00;99.90;;;;;;5069906;28;20201;-69
2024/02/15 02:39:01;;;;;;;14.70;7.93;;;9.00;99.90;;;;;;5053723;28;20201;-69
2024/02/15 02:41:28;;;;;;;19.23;10.50;;;9.00;99.90;;;;;;5075653;28;20282;-69
2024/02/15 02:43:58;;;;;;;22.40;11.17;;;9.00;99.90;;;;;;5073322;28;20193;-69
2024/02/15 02:46:25;;;;;;;20.27;9.73;;;9.00;99.90;;;;;;5072221;28;20195;-69
2024/02/15 02:48:52;;;;;;;16.50;8.40;;;9.00;99.90;;;;;;5071520;28;20279;-68
2024/02/15 02:51:20;;;;;;;22.13;10.07;;;9.00;99.90;;;;;;5070637;28;20209;-69
2024/02/15 02:53:47;;;;;;;22.70;11.33;;;9.00;99.90;;;;;;5049885;28;20202;-67
2024/02/15 02:56:14;;;;;;;26.47;13.43;;;9.00;99.90;;;;;;5071509;28;20198;-68
2024/02/15 02:58:43;;;;;;;26.00;13.40;;;9.00;99.90;;;;;;5075461;28;20318;-68
2024/02/15 03:01:13;;;;;;;28.20;13.90;;;8.90;99.90;;;;;;5072104;28;20200;-69
2024/02/15 03:03:40;;;;;;;26.60;13.20;;;8.90;99.90;;;;;;5071815;28;20218;-68
2024/02/15 03:06:07;;;;;;;27.37;13.73;;;8.90;99.90;;;;;;5069875;28;20225;-67
2024/02/15 03:08:34;;;;;;;23.90;13.70;;;8.80;99.90;;;;;;5072175;28;20190;-69
2024/02/15 03:11:01;;;;;;;31.17;13.97;;;8.80;99.90;;;;;;5071459;28;20238;-68
2024/02/15 03:13:28;;;;;;;26.07;12.60;;;8.70;99.90;;;;;;5073605;28;20194;-68
2024/02/15 03:15:55;;;;;;;25.53;12.10;;;8.70;99.90;;;;;;5078396;28;20202;-69
2024/02/15 03:18:24;;;;;;;28.77;13.47;;;8.70;99.90;;;;;;5045956;28;20245;-69
2024/02/15 03:20:51;;;;;;;27.93;13.80;;;8.70;99.90;;;;;;5063848;28;20692;-69
2024/02/15 03:23:18;;;;;;;27.87;14.63;;;8.70;99.90;;;;;;5070666;28;20209;-69
2024/02/15 03:25:45;;;;;;;23.60;12.80;;;8.60;99.90;;;;;;5071056;28;20201;-69
2024/02/15 03:28:12;;;;;;;25.37;13.47;;;8.60;99.90;;;;;;5071148;28;20198;-69
2024/02/15 03:30:39;;;;;;;24.73;13.27;;;8.60;99.90;;;;;;5052891;28;20673;-69
2024/02/15 03:33:06;;;;;;;28.90;14.03;;;8.70;99.90;;;;;;5069953;28;20190;-69
2024/02/15 03:35:35;;;;;;;25.37;13.27;;;9.00;99.90;;;;;;5074560;28;20195;-67
2024/02/15 03:38:03;;;;;;;30.30;14.93;;;8.70;99.90;;;;;;5070830;28;20201;-68
2024/02/15 03:40:32;;;;;;;24.87;12.93;;;8.60;99.90;;;;;;5076347;28;20211;-67
2024/02/15 03:42:59;;;;;;;28.27;14.37;;;8.70;99.90;;;;;;5049873;28;20308;-67
2024/02/15 03:45:26;;;;;;;31.60;14.13;;;8.60;99.90;;;;;;5059503;28;20267;-67
2024/02/15 03:47:53;;;;;;;32.90;14.77;;;8.60;99.90;;;;;;5051872;28;20231;-67
2024/02/15 03:50:21;;;;;;;29.00;13.93;;;8.60;99.90;;;;;;5070880;28;20196;-67
2024/02/15 03:52:51;;;;;;;26.93;14.17;;;8.60;99.90;;;;;;5070133;28;20620;-67
2024/02/15 03:55:18;;;;;;;29.30;14.97;;;8.60;99.90;;;;;;5067429;28;20374;-69
2024/02/15 03:57:45;;;;;;;30.93;15.10;;;8.60;99.90;;;;;;5074126;28;20317;-68
2024/02/15 04:00:15;;;;;;;33.03;15.07;;;8.60;99.90;;;;;;5071559;28;20197;-68
2024/02/15 04:02:42;;;;;;;27.33;14.70;;;8.50;99.90;;;;;;5050762;28;20228;-68
2024/02/15 04:05:11;;;;;;;30.73;14.80;;;8.50;99.90;;;;;;5074890;28;20230;-69
2024/02/15 04:07:39;;;;;;;27.77;13.80;;;8.50;99.90;;;;;;5070948;28;20203;-69
2024/02/15 04:10:09;;;;;;;30.67;15.20;;;8.50;99.90;;;;;;5074035;28;20203;-69
2024/02/15 04:12:36;;;;;;;32.07;14.90;;;8.50;99.90;;;;;;5068987;28;20212;-69
2024/02/15 04:15:11;;;;;;;33.63;14.47;;;8.50;99.90;;;;;;5066177;28;20204;-68
2024/02/15 04:17:38;;;;;;;30.20;14.37;;;8.50;99.90;;;;;;5068209;28;20192;-69
2024/02/15 04:20:06;;;;;;;33.60;14.10;;;8.50;99.90;;;;;;5065610;28;20200;-68
2024/02/15 04:22:36;;;;;;;30.67;15.53;;;8.50;99.90;;;;;;5071163;28;20580;-69
2024/02/15 04:25:04;;;;;;;27.23;14.50;;;8.50;99.90;;;;;;5076090;28;20204;-67
2024/02/15 04:27:32;;;;;;;29.00;15.53;;;8.50;99.90;;;;;;5070023;28;20524;-68
2024/02/15 04:29:59;;;;;;;26.67;13.60;;;8.50;99.90;;;;;;5079213;28;20696;-68
2024/02/15 04:32:26;;;;;;;29.83;15.00;;;8.50;99.90;;;;;;5070090;28;20246;-68
2024/02/15 04:34:53;;;;;;;29.27;14.40;;;8.60;99.90;;;;;;5077011;28;20280;-67
2024/02/15 04:37:20;;;;;;;31.30;15.53;;;8.60;99.90;;;;;;5071123;28;20197;-67
2024/02/15 04:39:48;;;;;;;27.03;13.87;;;8.60;99.90;;;;;;5052353;28;20207;-68
2024/02/15 04:42:17;;;;;;;28.13;14.13;;;8.60;99.90;;;;;;5070639;28;20203;-68
2024/02/15 04:44:45;;;;;;;27.63;14.07;;;8.60;99.90;;;;;;5073038;28;20191;-67
2024/02/15 04:47:12;;;;;;;31.03;14.80;;;8.60;99.90;;;;;;5069938;28;20205;-68
2024/02/15 04:49:39;;;;;;;28.70;14.73;;;8.70;99.90;;;;;;5074114;28;20206;-67
2024/02/15 04:52:07;;;;;;;34.40;15.30;;;8.70;99.90;;;;;;5070786;28;20199;-68
2024/02/15 04:54:34;;;;;;;33.50;15.53;;;8.70;99.90;;;;;;5069292;28;20595;-68
2024/02/15 04:57:01;;;;;;;26.87;14.23;;;8.70;99.90;;;;;;5057890;28;20204;-67
2024/02/15 04:59:29;;;;;;;25.37;13.20;;;8.70;99.90;;;;;;5071660;28;20200;-68
2024/02/15 05:01:59;;;;;;;30.37;14.73;;;8.70;99.90;;;;;;5071631;28;20222;-67
2024/02/15 05:04:26;;;;;;;33.47;15.47;;;8.70;99.90;;;;;;5074904;28;20226;-68
2024/02/15 05:06:53;;;;;;;32.17;15.70;;;8.70;99.90;;;;;;5052908;28;20573;-68
2024/02/15 05:09:22;;;;;;;29.93;14.97;;;8.70;99.90;;;;;;5069736;28;20277;-69
2024/02/15 05:11:50;;;;;;;31.40;15.50;;;8.70;99.90;;;;;;5067467;28;20200;-68
2024/02/15 05:14:19;;;;;;;31.87;14.90;;;8.70;99.90;;;;;;5069054;28;20198;-68
2024/02/15 05:16:47;;;;;;;34.00;16.03;;;8.70;99.90;;;;;;5071640;28;20199;-68
2024/02/15 05:19:17;;;;;;;31.83;15.83;;;8.70;99.90;;;;;;5072888;28;20225;-68
2024/02/15 05:21:45;;;;;;;40.00;16.77;;;8.70;99.90;;;;;;5055799;28;20253;-70
2024/02/15 05:24:14;;;;;;;37.40;17.27;;;8.70;99.90;;;;;;5073499;28;20216;-70
2024/02/15 05:26:42;;;;;;;36.13;16.13;;;8.60;99.90;;;;;;5081972;28;20197;-70
2024/02/15 05:29:11;;;;;;;36.67;16.70;;;8.60;99.90;;;;;;5074273;28;20556;-68
2024/02/15 05:31:39;;;;;;;34.37;16.10;;;8.60;99.90;;;;;;5073291;28;20222;-68
2024/02/15 05:34:11;;;;;;;35.33;17.87;;;8.60;99.90;;;;;;5072265;28;20564;-68
2024/02/15 05:36:40;;;;;;;39.63;18.07;;;8.60;99.90;;;;;;5077774;28;20282;-68
2024/02/15 05:39:08;;;;;;;41.60;18.17;;;8.60;99.90;;;;;;5073145;28;20193;-68
2024/02/15 05:41:35;;;;;;;37.27;18.27;;;8.60;99.90;;;;;;5075782;28;20247;-67
2024/02/15 05:44:04;;;;;;;36.63;17.80;;;8.60;99.90;;;;;;5072922;28;20215;-67
2024/02/15 05:46:31;;;;;;;39.93;17.73;;;8.60;99.90;;;;;;5075287;28;20314;-70
2024/02/15 05:48:59;;;;;;;39.33;18.37;;;8.60;99.90;;;;;;5076711;28;20194;-69
2024/02/15 05:51:26;;;;;;;33.13;17.33;;;8.60;99.90;;;;;;5076580;28;20279;-70
2024/02/15 05:53:58;;;;;;;34.67;15.97;;;8.60;99.90;;;;;;5072693;28;20193;-70
2024/02/15 05:56:25;;;;;;;32.27;16.57;;;8.60;99.90;;;;;;5074759;28;20189;-70
2024/02/15 05:58:53;;;;;;;40.63;18.03;;;8.60;99.90;;;;;;5072593;28;20199;-69
2024/02/15 06:01:20;;;;;;;38.13;17.27;;;8.60;99.90;;;;;;5047719;28;20292;-69
2024/02/15 06:03:48;;;;;;;33.87;16.17;;;8.60;99.90;;;;;;5071750;28;20220;-70
2024/02/15 06:06:15;;;;;;;37.00;18.03;;;8.60;99.90;;;;;;5078236;28;20204;-70
2024/02/15 06:08:42;;;;;;;35.83;17.43;;;8.60;99.90;;;;;;5066861;28;20253;-69
2024/02/15 06:11:10;;;;;;;33.90;17.07;;;8.60;99.90;;;;;;5082228;28;20201;-68
2024/02/15 06:13:38;;;;;;;39.57;18.27;;;8.60;99.90;;;;;;5075486;28;20534;-69
2024/02/15 06:16:09;;;;;;;32.10;15.00;;;8.60;99.90;;;;;;5075029;28;20616;-69
2024/02/15 06:18:37;;;;;;;37.23;16.30;;;8.60;99.90;;;;;;5071479;28;20275;-68
2024/02/15 06:21:05;;;;;;;43.37;19.57;;;8.60;99.90;;;;;;5073266;28;20286;-69
2024/02/15 06:23:33;;;;;;;30.83;15.93;;;8.70;99.90;;;;;;5071055;28;20218;-68
2024/02/15 06:26:02;;;;;;;36.13;16.30;;;8.60;99.90;;;;;;5076210;28;20232;-68
2024/02/15 06:39:45;;;;;;;43.70;18.93;;;8.70;99.90;;;;;;5070706;28;20192;-67
2024/02/15 06:42:15;;;;;;;33.93;16.13;;;8.70;99.90;;;;;;5073230;28;20206;-67
2024/02/15 06:44:44;;;;;;;37.87;16.50;;;8.70;99.90;;;;;;5070692;28;20292;-66
2024/02/15 06:47:12;;;;;;;35.87;16.77;;;8.70;99.90;;;;;;5076029;28;20198;-66
2024/02/15 06:49:40;;;;;;;36.00;17.20;;;8.80;99.90;;;;;;5054038;28;20212;-67
2024/02/15 06:52:08;;;;;;;35.27;16.47;;;8.80;99.90;;;;;;5076070;28;20292;-67
2024/02/15 06:54:36;;;;;;;35.23;16.63;;;8.80;99.90;;;;;;5069473;28;20559;-68
2024/02/15 06:57:04;;;;;;;33.17;15.50;;;8.80;99.90;;;;;;5071402;28;20662;-67
2024/02/15 06:59:31;;;;;;;29.60;14.47;;;8.80;99.90;;;;;;5070766;28;20664;-66
2024/02/15 07:02:01;;;;;;;34.43;15.83;;;8.80;99.90;;;;;;5047040;28;20285;-66
2024/02/15 07:04:29;;;;;;;37.50;16.87;;;8.80;99.90;;;;;;5064342;28;20233;-67
2024/02/15 07:06:56;;;;;;;32.53;16.00;;;8.80;99.90;;;;;;5065945;28;20533;-67
2024/02/15 07:09:24;;;;;;;33.13;15.73;;;8.80;99.90;;;;;;5067696;28;20200;-66
2024/02/15 07:11:51;;;;;;;30.13;14.97;;;8.80;99.90;;;;;;5069301;28;20506;-67
2024/02/15 07:14:19;;;;;;;32.73;14.93;;;8.80;99.90;;;;;;5067636;28;20199;-67
2024/02/15 07:16:46;;;;;;;33.10;15.07;;;8.80;99.90;;;;;;5071071;28;20712;-67
2024/02/15 07:19:16;;;;;;;33.97;16.10;;;8.90;99.90;;;;;;5067754;28;20196;-67
2024/02/15 07:21:43;;;;;;;34.07;15.40;;;8.80;99.90;;;;;;5069745;28;20576;-67
2024/02/15 07:24:11;;;;;;;37.23;17.33;;;8.80;99.90;;;;;;5067376;28;20227;-67
2024/02/15 07:26:38;;;;;;;33.57;14.67;;;8.90;99.90;;;;;;5070068;28;20215;-67
2024/02/15 07:29:07;;;;;;;38.00;17.50;;;8.90;99.90;;;;;;5066570;28;20668;-66
2024/02/15 07:31:35;;;;;;;34.73;16.83;;;8.90;99.90;;;;;;5068391;28;20291;-67
2024/02/15 07:34:03;;;;;;;35.10;16.13;;;8.90;99.90;;;;;;5065485;28;20200;-67
2024/02/15 07:36:32;;;;;;;37.47;17.63;;;8.90;99.90;;;;;;5067310;28;20195;-66
2024/02/15 07:39:00;;;;;;;39.33;17.10;;;8.90;99.90;;;;;;5067573;28;20187;-67
2024/02/15 07:41:28;;;;;;;41.57;17.97;;;9.00;99.90;;;;;;5066727;28;20195;-67
2024/02/15 07:43:57;;;;;;;37.00;18.00;;;9.00;99.90;;;;;;5068700;28;20207;-67
2024/02/15 07:46:24;;;;;;;39.60;16.67;;;9.00;99.90;;;;;;5067342;28;20238;-67
2024/02/15 07:48:52;;;;;;;35.50;16.03;;;9.00;99.90;;;;;;5068177;28;20201;-67
2024/02/15 07:51:20;;;;;;;31.90;15.13;;;9.00;99.90;;;;;;5051383;28;20200;-67
2024/02/15 07:53:49;;;;;;;41.83;18.10;;;9.00;99.90;;;;;;5070605;28;20198;-67
2024/02/15 07:56:17;;;;;;;33.33;15.73;;;9.00;99.90;;;;;;5043747;28;20197;-67
2024/02/15 07:58:46;;;;;;;35.30;16.80;;;9.00;99.90;;;;;;5060746;28;20294;-66
2024/02/15 08:01:14;;;;;;;40.20;17.93;;;9.00;99.90;;;;;;5049054;28;20206;-67
2024/02/15 08:03:44;;;;;;;32.27;15.67;;;9.10;99.90;;;;;;5063224;28;20246;-69
2024/02/15 08:06:13;;;;;;;33.37;15.33;;;9.10;99.90;;;;;;5066209;28;20571;-67
2024/02/15 08:08:41;;;;;;;32.17;16.13;;;9.20;99.90;;;;;;5070933;28;20197;-68
2024/02/15 08:11:14;;;;;;;32.77;15.17;;;9.20;99.90;;;;;;5065312;28;20197;-67
2024/02/15 08:13:44;;;;;;;31.53;15.77;;;9.30;99.90;;;;;;5069192;28;20529;-67
2024/02/15 08:16:12;;;;;;;32.90;16.37;;;9.30;99.90;;;;;;5063489;28;20200;-68
2024/02/15 08:18:40;;;;;;;31.80;15.67;;;9.30;99.90;;;;;;5059310;28;20199;-67
2024/02/15 08:21:07;;;;;;;39.03;17.67;;;9.30;99.90;;;;;;5051801;28;20297;-68
2024/02/15 08:23:34;;;;;;;34.90;16.00;;;9.30;99.90;;;;;;5068779;28;20208;-68
2024/02/15 08:26:01;;;;;;;33.40;16.50;;;9.40;99.90;;;;;;5066466;28;20602;-67
2024/02/15 08:28:29;;;;;;;33.57;16.03;;;9.40;99.90;;;;;;5067394;28;20196;-67
2024/02/15 08:30:57;;;;;;;36.83;16.33;;;9.40;99.90;;;;;;5065668;28;20670;-67
2024/02/15 08:33:28;;;;;;;37.63;17.40;;;9.40;99.90;;;;;;5067463;28;20192;-68
2024/02/15 08:35:55;;;;;;;36.90;16.83;;;9.50;99.90;;;;;;5068365;28;20247;-68
2024/02/15 08:38:23;;;;;;;33.60;14.27;;;9.50;99.90;;;;;;5064618;28;20223;-67
2024/02/15 08:40:50;;;;;;;33.70;15.77;;;9.50;99.90;;;;;;5042691;28;20204;-67
2024/02/15 08:43:17;;;;;;;31.43;15.87;;;9.50;99.90;;;;;;5069291;28;20197;-68
2024/02/15 08:45:46;;;;;;;31.67;14.43;;;9.50;99.90;;;;;;5057632;28;20300;-67
2024/02/15 08:48:13;;;;;;;24.83;12.40;;;9.50;99.90;;;;;;5060012;28;20227;-67
2024/02/15 08:50:41;;;;;;;23.57;12.03;;;9.60;99.90;;;;;;5057697;28;20735;-67
2024/02/15 08:53:08;;;;;;;26.30;14.13;;;9.60;99.90;;;;;;5067849;28;20283;-67
2024/02/15 08:55:36;;;;;;;24.83;12.00;;;9.60;99.90;;;;;;5075447;28;20201;-67
2024/02/15 08:58:04;;;;;;;24.50;12.93;;;9.70;99.90;;;;;;5071100;28;20570;-68
2024/02/15 09:00:31;;;;;;;19.30;10.37;;;9.70;99.90;;;;;;5070423;28;20207;-67
2024/02/15 09:02:59;;;;;;;22.77;10.43;;;9.80;99.90;;;;;;5070197;28;20202;-67
2024/02/15 09:05:27;;;;;;;23.13;11.73;;;9.80;99.90;;;;;;5066518;28;20579;-67
2024/02/15 09:07:54;;;;;;;17.57;9.47;;;9.80;99.90;;;;;;5065224;28;20204;-66
2024/02/15 09:10:23;;;;;;;23.70;11.63;;;9.90;99.90;;;;;;5071225;28;20209;-68
2024/02/15 09:12:50;;;;;;;21.87;11.47;;;9.90;99.90;;;;;;5070531;28;20202;-68
2024/02/15 09:15:17;;;;;;;26.23;12.97;;;9.90;99.90;;;;;;5069001;28;20209;-68
2024/02/15 09:17:46;;;;;;;23.67;12.27;;;9.90;99.90;;;;;;5068749;28;20212;-68
2024/02/15 09:20:15;;;;;;;29.37;13.90;;;10.00;99.90;;;;;;5068926;28;20663;-67
2024/02/15 09:22:46;;;;;;;28.87;14.57;;;10.00;99.90;;;;;;5068478;28;20208;-67
2024/02/15 09:25:13;;;;;;;27.57;13.67;;;10.00;99.90;;;;;;5068891;28;20215;-67
2024/02/15 09:27:40;;;;;;;29.53;15.13;;;10.00;99.90;;;;;;5064250;28;20267;-67
2024/02/15 09:30:09;;;;;;;23.27;12.37;;;10.00;99.90;;;;;;5070031;28;20666;-67
2024/02/15 09:32:36;;;;;;;25.77;12.90;;;10.00;99.90;;;;;;5065773;28;20205;-67
2024/02/15 09:35:07;;;;;;;20.13;10.87;;;10.00;99.90;;;;;;5063849;28;20193;-67
2024/02/15 09:37:37;;;;;;;23.30;11.70;;;10.00;99.90;;;;;;5069591;28;20193;-67
2024/02/15 09:40:07;;;;;;;23.17;11.10;;;10.00;99.90;;;;;;5073566;28;20193;-68
2024/02/15 09:42:35;;;;;;;21.93;11.67;;;10.10;99.90;;;;;;5069459;28;20192;-67
2024/02/15 09:45:03;;;;;;;17.90;9.20;;;10.10;99.90;;;;;;5071014;28;20288;-68
2024/02/15 09:47:36;;;;;;;13.00;8.23;;;10.10;99.90;;;;;;5069432;28;20202;-67
2024/02/15 09:50:03;;;;;;;22.37;10.93;;;10.10;99.90;;;;;;5059215;28;20192;-68
2024/02/15 09:52:33;;;;;;;22.13;10.70;;;10.20;99.90;;;;;;5066131;28;20195;-68
2024/02/15 09:55:03;;;;;;;21.20;10.97;;;10.20;99.90;;;;;;5069456;28;20192;-68
2024/02/15 09:57:31;;;;;;;21.00;10.67;;;10.30;99.90;;;;;;5070255;28;20192;-68
2024/02/15 09:59:59;;;;;;;15.50;8.13;;;10.30;99.90;;;;;;5055477;28;20240;-67
2024/02/15 10:02:27;;;;;;;18.80;9.53;;;10.30;99.90;;;;;;5065492;28;20569;-68
2024/02/15 10:04:57;;;;;;;18.43;9.00;;;10.30;99.90;;;;;;5067408;28;20405;-68
2024/02/15 10:07:24;;;;;;;12.77;7.57;;;10.40;99.90;;;;;;5068863;28;20664;-68
2024/02/15 10:09:51;;;;;;;15.50;8.80;;;10.40;99.90;;;;;;5063384;28;20207;-67
2024/02/15 10:12:20;;;;;;;14.77;7.80;;;10.40;99.90;;;;;;5062399;28;20578;-68
2024/02/15 10:14:52;;;;;;;24.27;11.47;;;10.50;99.90;;;;;;5070048;28;20280;-67
2024/02/15 10:17:20;;;;;;;17.00;9.77;;;10.50;99.90;;;;;;5063830;28;20206;-67
2024/02/15 10:20:04;;;;;;;14.57;8.37;;;10.50;99.90;;;;;;5069451;28;20221;-67
2024/02/15 10:22:31;;;;;;;14.30;8.03;;;10.50;99.90;;;;;;5067632;28;20197;-67
2024/02/15 10:25:12;;;;;;;12.83;7.60;;;10.50;99.90;;;;;;5069753;28;20282;-68
2024/02/15 10:27:41;;;;;;;13.23;7.73;;;10.60;99.90;;;;;;5069101;28;20252;-68
2024/02/15 10:30:19;;;;;;;12.03;7.10;;;10.60;99.90;;;;;;5068865;28;20362;-66
2024/02/15 10:32:48;;;;;;;13.03;8.23;;;10.70;99.90;;;;;;5066981;28;20731;-66
2024/02/15 10:35:22;;;;;;;11.87;6.93;;;10.70;99.90;;;;;;5067898;28;20543;-66
2024/02/15 10:37:51;;;;;;;17.37;9.20;;;10.80;99.90;;;;;;5066931;28;20218;-66
2024/02/15 10:40:22;;;;;;;15.90;8.40;;;10.80;99.90;;;;;;5047282;28;20199;-65
2024/02/15 10:42:52;;;;;;;16.27;9.07;;;10.80;99.90;;;;;;5065512;28;20211;-66
2024/02/15 10:45:20;;;;;;;19.93;9.87;;;10.80;99.90;;;;;;5064385;28;20211;-66
2024/02/15 10:47:47;;;;;;;18.20;9.37;;;10.80;99.90;;;;;;5068006;28;20246;-67
2024/02/15 10:50:15;;;;;;;16.37;9.30;;;10.90;99.90;;;;;;5066438;28;20225;-67
2024/02/15 10:52:52;;;;;;;18.40;10.30;;;10.90;99.90;;;;;;5068691;28;20194;-67
2024/02/15 10:55:30;;;;;;;13.93;8.50;;;10.90;99.90;;;;;;5069096;28;20603;-67
2024/02/15 10:58:03;;;;;;;17.37;9.37;;;10.90;99.90;;;;;;5064779;28;20205;-67
2024/02/15 11:00:37;;;;;;;17.37;9.50;;;10.90;99.90;;;;;;5064768;28;20638;-66
2024/02/15 11:03:06;;;;;;;20.80;9.97;;;10.90;99.90;;;;;;5067616;28;20202;-67
2024/02/15 11:05:37;;;;;;;18.30;10.13;;;11.00;99.90;;;;;;5065535;28;20774;-67
2024/02/15 11:08:06;;;;;;;16.87;9.97;;;11.00;99.90;;;;;;5063605;28;20534;-66
2024/02/15 11:10:34;;;;;;;15.97;9.50;;;11.00;99.90;;;;;;5070407;28;20450;-67
2024/02/15 11:13:05;;;;;;;18.67;11.07;;;11.00;99.90;;;;;;5064829;28;21044;-67
2024/02/15 11:15:45;;;;;;;17.10;9.77;;;11.00;99.90;;;;;;5061481;28;20211;-67
2024/02/15 11:18:12;;;;;;;19.47;11.03;;;11.00;99.90;;;;;;5067735;28;20189;-67
2024/02/15 11:20:53;;;;;;;17.57;9.37;;;11.00;99.90;;;;;;5066875;28;20217;-67
2024/02/15 11:23:30;;;;;;;16.43;9.63;;;11.00;99.90;;;;;;5067347;28;20564;-67
2024/02/15 11:25:59;;;;;;;17.73;10.30;;;11.00;99.90;;;;;;5067618;28;20212;-67
2024/02/15 11:28:41;;;;;;;20.63;11.10;;;11.10;99.90;;;;;;5066849;28;20200;-67
2024/02/15 11:31:32;;;;;;;21.57;11.63;;;10.90;99.90;;;;;;5076502;28;20194;-67
2024/02/15 11:34:00;;;;;;;17.83;9.60;;;11.10;99.90;;;;;;5064975;28;20643;-67
2024/02/15 11:36:32;;;;;;;20.23;10.67;;;11.10;99.90;;;;;;5075791;28;20192;-67
2024/02/15 11:38:59;;;;;;;15.07;8.40;;;11.00;99.90;;;;;;5066561;28;20196;-67
2024/02/15 11:41:26;;;;;;;16.77;10.13;;;11.10;99.90;;;;;;5049098;28;20197;-66
2024/02/15 11:43:58;;;;;;;20.60;10.80;;;11.10;99.90;;;;;;5067215;28;20206;-67
2024/02/15 11:46:29;;;;;;;20.80;11.50;;;11.10;99.90;;;;;;5072512;28;20237;-67
2024/02/15 11:48:58;;;;;;;17.73;10.60;;;11.20;99.90;;;;;;5065853;28;20277;-65
2024/02/15 11:51:30;;;;;;;18.13;11.10;;;11.20;99.90;;;;;;5062377;28;20623;-67
2024/02/15 11:54:06;;;;;;;22.20;12.43;;;11.20;99.90;;;;;;5062523;28;20265;-66
2024/02/15 11:56:51;;;;;;;23.43;12.33;;;11.20;99.90;;;;;;5065702;28;20197;-67
2024/02/15 11:59:28;;;;;;;27.33;14.20;;;11.30;99.90;;;;;;5061283;28;20557;-67
2024/02/15 12:18:45;;;;;;;20.87;10.93;;;11.40;99.90;;;;;;5065486;28;20200;-67
2024/02/15 12:21:18;;;;;;;20.30;11.40;;;11.50;99.90;;;;;;5048806;28;20296;-67
2024/02/15 12:23:46;;;;;;;23.50;12.57;;;11.60;99.90;;;;;;5065424;28;20318;-67
2024/02/15 12:26:14;;;;;;;26.10;13.43;;;11.70;99.90;;;;;;5065833;28;20205;-67
2024/02/15 12:28:43;;;;;;;22.93;12.87;;;11.70;99.90;;;;;;5069184;28;20197;-67
2024/02/15 12:31:13;;;;;;;21.43;12.23;;;11.80;99.90;;;;;;5070483;28;20326;-66
2024/02/15 12:33:40;;;;;;;16.57;9.40;;;11.80;99.90;;;;;;5052295;28;20197;-67
2024/02/15 12:36:08;;;;;;;16.03;9.57;;;11.80;99.90;;;;;;5067056;28;20196;-67
2024/02/15 12:38:37;;;;;;;23.83;12.60;;;11.80;99.90;;;;;;5067668;28;20197;-66
2024/02/15 12:41:05;;;;;;;19.50;11.40;;;11.80;99.90;;;;;;5073375;28;20239;-67
2024/02/15 12:43:32;;;;;;;23.23;12.47;;;11.90;99.90;;;;;;5070772;28;20200;-67
2024/02/15 12:46:00;;;;;;;19.30;10.87;;;11.90;99.90;;;;;;5062127;28;20205;-67
2024/02/15 12:48:29;;;;;;;26.97;13.33;;;11.90;99.90;;;;;;5067356;28;20189;-67
2024/02/15 12:50:56;;;;;;;27.03;13.93;;;11.90;99.90;;;;;;5059910;28;20216;-67
2024/02/15 12:53:23;;;;;;;22.33;13.60;;;11.90;99.90;;;;;;5067692;28;20197;-66
2024/02/15 12:55:55;;;;;;;26.90;14.40;;;11.90;99.90;;;;;;5072249;28;20201;-66
2024/02/15 12:58:24;;;;;;;25.47;13.83;;;11.90;99.90;;;;;;5071204;28;20192;-67
2024/02/15 13:00:55;;;;;;;25.70;14.00;;;11.90;99.90;;;;;;5068879;28;20300;-66
2024/02/15 13:03:22;;;;;;;20.63;11.60;;;11.90;99.90;;;;;;5071139;28;20197;-67
2024/02/15 13:05:51;;;;;;;18.67;10.80;;;11.90;99.90;;;;;;5066586;28;20278;-66
2024/02/15 13:08:18;;;;;;;18.97;11.13;;;11.90;99.90;;;;;;5063384;28;20271;-67
2024/02/15 13:10:45;;;;;;;24.07;13.77;;;11.90;99.90;;;;;;5061204;28;20279;-66